Time;durP1;ratioP1;P1;durP2;ratioP2;P2;SDS_P1;SDS_P2;PMS_P1;PMS_P2;Temp;Humidity;BMP_temperature;BMP_pressure;BME280_temperature;BME280_humidity;BME280_pressure;Samples;Min_cycle;Max_cycle;Signal;HPM_P1;HPM_P2
2022/11/24 00:01:02;;;;;;;15.85;6.57;;;;;;;4.48;100.00;95456.34;5054628;28;20040;-92
2022/11/24 00:03:29;;;;;;;11.80;6.13;;;;;;;4.56;100.00;95450.28;5053292;28;20116;-93
2022/11/24 00:06:03;;;;;;;10.52;4.55;;;;;;;4.66;100.00;95458.16;5054038;28;20049;-94
2022/11/24 00:08:30;;;;;;;10.02;4.93;;;;;;;4.71;100.00;95466.94;5053223;28;20048;-94
2022/11/24 00:10:56;;;;;;;9.00;5.10;;;;;;;4.81;100.00;95474.00;5067915;28;20048;-93
2022/11/24 00:13:23;;;;;;;9.43;4.22;;;;;;;4.85;100.00;95469.59;5053836;28;20580;-94
2022/11/24 00:15:49;;;;;;;8.50;4.05;;;;;;;4.89;100.00;95473.28;5053437;28;20041;-92
2022/11/24 00:18:16;;;;;;;8.25;4.20;;;;;;;4.92;100.00;95469.97;5072945;28;20410;-92
2022/11/24 00:20:42;;;;;;;8.55;3.30;;;;;;;4.94;100.00;95481.25;5054032;28;20047;-94
2022/11/24 00:23:10;;;;;;;9.35;3.70;;;;;;;5.01;100.00;95488.13;5053138;28;20044;-93
2022/11/24 00:25:37;;;;;;;11.63;4.03;;;;;;;5.08;100.00;95485.84;5053873;28;20045;-92
2022/11/24 00:28:04;;;;;;;9.00;3.72;;;;;;;5.13;100.00;95497.31;5072056;28;20411;-94
2022/11/24 00:30:31;;;;;;;5.85;2.80;;;;;;;5.22;100.00;95497.41;5074166;28;20513;-92
2022/11/24 00:32:57;;;;;;;9.63;3.40;;;;;;;5.21;100.00;95503.88;5073926;28;20041;-93
2022/11/24 00:35:24;;;;;;;10.15;3.08;;;;;;;5.20;100.00;95510.38;5073389;28;20051;-93
2022/11/24 00:37:52;;;;;;;15.02;3.90;;;;;;;5.28;100.00;95508.88;5057985;28;20067;-93
2022/11/24 00:40:20;;;;;;;9.35;3.28;;;;;;;5.33;100.00;95509.56;5069903;28;20098;-92
2022/11/24 00:42:47;;;;;;;9.15;2.97;;;;;;;5.45;100.00;95511.72;5074185;28;20222;-92
2022/11/24 00:45:13;;;;;;;7.57;3.35;;;;;;;5.42;100.00;95518.50;5073138;28;20044;-92
2022/11/24 00:47:40;;;;;;;5.85;3.13;;;;;;;5.43;100.00;95520.13;5073293;28;20058;-94
2022/11/24 00:50:07;;;;;;;7.00;2.63;;;;;;;5.44;100.00;95529.03;5058503;28;20120;-92
2022/11/24 00:52:34;;;;;;;6.88;2.85;;;;;;;5.48;100.00;95527.28;5053201;28;20135;-92
2022/11/24 00:55:01;;;;;;;5.55;2.55;;;;;;;5.47;100.00;95531.91;5053266;28;20052;-94
2022/11/24 00:57:29;;;;;;;7.90;3.03;;;;;;;5.50;100.00;95544.78;5052485;28;20125;-94
2022/11/24 00:59:55;;;;;;;7.22;3.10;;;;;;;5.54;100.00;95546.91;5052961;28;20518;-94
2022/11/24 01:02:22;;;;;;;11.20;3.28;;;;;;;5.54;100.00;95549.59;5051606;28;20052;-94
2022/11/24 01:04:48;;;;;;;9.15;2.78;;;;;;;5.60;100.00;95551.06;5052403;28;20086;-93
2022/11/24 01:07:15;;;;;;;7.95;2.85;;;;;;;5.59;100.00;95555.69;5061460;28;20044;-93
2022/11/24 01:09:44;;;;;;;9.73;2.53;;;;;;;5.56;100.00;95569.00;5062948;28;20063;-92
2022/11/24 01:12:11;;;;;;;7.85;2.78;;;;;;;5.57;100.00;95579.47;5072411;28;20491;-93
2022/11/24 01:17:21;;;;;;;9.98;2.75;;;;;;;5.62;100.00;95586.66;5017594;28;20048;-94
2022/11/24 01:19:48;;;;;;;6.95;2.53;;;;;;;5.70;100.00;95594.84;5031207;28;20049;-93
2022/11/24 01:22:15;;;;;;;5.30;2.45;;;;;;;5.79;100.00;95597.59;5030342;28;20052;-94
2022/11/24 01:24:41;;;;;;;9.35;2.72;;;;;;;5.73;100.00;95599.63;5030644;28;20133;-94
2022/11/24 01:27:08;;;;;;;5.90;2.40;;;;;;;5.71;100.00;95601.84;5030076;28;20041;-93
2022/11/24 01:29:35;;;;;;;8.52;2.72;;;;;;;5.62;100.00;95602.88;5030175;28;20045;-93
2022/11/24 01:32:03;;;;;;;8.95;2.45;;;;;;;5.60;100.00;95608.59;5030373;28;20510;-92
2022/11/24 01:34:30;;;;;;;10.88;2.85;;;;;;;5.64;100.00;95616.88;5029517;28;20037;-93
2022/11/24 01:36:56;;;;;;;10.07;2.50;;;;;;;5.71;100.00;95606.44;5029522;28;20144;-92
2022/11/24 01:39:23;;;;;;;6.20;2.50;;;;;;;5.61;100.00;95609.38;5009071;28;20184;-92
2022/11/24 01:41:51;;;;;;;8.38;2.42;;;;;;;5.58;100.00;95612.69;5009927;28;20073;-92
2022/11/24 01:44:23;;;;;;;9.25;2.38;;;;;;;5.57;100.00;95616.50;5009575;28;20053;-92
2022/11/24 01:46:53;;;;;;;11.80;3.13;;;;;;;5.63;100.00;95620.66;5009642;28;20046;-92
2022/11/24 01:49:26;;;;;;;7.13;2.88;;;;;;;5.43;100.00;95616.53;5056796;28;20135;-89
2022/11/24 01:51:57;;;;;;;8.07;2.30;;;;;;;5.36;100.00;95626.94;5051271;28;20049;-91
2022/11/24 01:54:28;;;;;;;11.95;2.90;;;;;;;5.33;100.00;95635.66;5051367;28;20041;-93
2022/11/24 01:56:58;;;;;;;10.52;2.53;;;;;;;5.30;100.00;95639.72;5068614;28;20044;-90
2022/11/24 01:59:26;;;;;;;8.57;2.85;;;;;;;5.23;100.00;95644.75;5064097;28;20395;-91
2022/11/24 02:01:53;;;;;;;8.52;2.83;;;;;;;5.25;100.00;95650.63;5051731;28;20044;-92
2022/11/24 02:04:25;;;;;;;4.03;2.20;;;;;;;5.22;100.00;95645.84;5050981;28;20044;-93
2022/11/24 02:06:54;;;;;;;9.63;2.75;;;;;;;5.29;100.00;95654.34;5067138;28;20059;-92
2022/11/24 02:09:26;;;;;;;7.43;3.13;;;;;;;5.21;100.00;95669.31;5058431;28;20048;-92
2022/11/24 02:11:54;;;;;;;9.13;2.35;;;;;;;5.25;100.00;95674.94;5071609;28;20048;-93
2022/11/24 02:14:23;;;;;;;8.55;3.00;;;;;;;5.18;100.00;95669.94;5070602;28;20110;-93
2022/11/24 02:16:51;;;;;;;9.60;3.25;;;;;;;5.17;100.00;95672.94;5068604;28;20047;-91
2022/11/24 02:19:29;;;;;;;7.18;3.03;;;;;;;5.09;100.00;95671.72;5050277;28;20447;-91
2022/11/24 02:21:55;;;;;;;11.73;3.50;;;;;;;5.05;100.00;95675.31;5050923;28;20037;-93
2022/11/24 02:24:29;;;;;;;14.63;3.53;;;;;;;4.96;100.00;95681.44;5050162;28;20056;-92
2022/11/24 02:26:57;;;;;;;10.18;4.40;;;;;;;5.02;100.00;95686.72;5053097;28;20471;-92
2022/11/24 02:29:23;;;;;;;8.82;4.35;;;;;;;5.00;100.00;95683.50;5064460;28;20048;-93
2022/11/24 02:31:55;;;;;;;12.38;4.25;;;;;;;4.89;100.00;95689.09;5075301;28;20037;-90
2022/11/24 02:34:21;;;;;;;16.50;4.40;;;;;;;4.86;100.00;95689.72;5060003;28;20056;-93
2022/11/24 02:36:48;;;;;;;12.32;4.38;;;;;;;4.79;100.00;95686.56;5055420;28;20052;-92
2022/11/24 02:39:15;;;;;;;10.40;3.65;;;;;;;4.75;100.00;95688.28;5064508;28;20037;-92
2022/11/24 02:41:43;;;;;;;10.90;3.95;;;;;;;4.75;100.00;95687.47;5075495;28;20044;-92
2022/11/24 02:44:14;;;;;;;13.18;4.30;;;;;;;4.71;100.00;95689.97;5074707;28;20499;-93
2022/11/24 02:46:40;;;;;;;12.75;3.65;;;;;;;4.75;100.00;95699.09;5064158;28;20059;-92
2022/11/24 02:49:07;;;;;;;8.88;3.20;;;;;;;4.74;100.00;95697.47;5063254;28;20044;-92
2022/11/24 02:51:34;;;;;;;8.43;3.30;;;;;;;4.76;100.00;95703.38;5055406;28;20602;-92
2022/11/24 02:54:00;;;;;;;7.78;3.30;;;;;;;4.78;100.00;95703.06;5055116;28;20696;-93
2022/11/24 02:56:27;;;;;;;11.35;2.92;;;;;;;4.83;100.00;95695.69;5054784;28;20033;-92
2022/11/24 02:58:54;;;;;;;8.18;2.88;;;;;;;4.85;100.00;95701.56;5060173;28;20044;-91
2022/11/24 03:01:21;;;;;;;6.57;2.38;;;;;;;4.88;100.00;95702.88;5054501;28;20048;-93
2022/11/24 03:03:48;;;;;;;8.27;2.85;;;;;;;4.95;100.00;95709.47;5055191;28;20053;-92
2022/11/24 03:06:15;;;;;;;10.13;2.15;;;;;;;4.95;100.00;95704.09;5054294;28;20040;-93
2022/11/24 03:08:41;;;;;;;6.55;2.40;;;;;;;5.03;100.00;95702.63;5055175;28;20055;-92
2022/11/24 03:11:08;;;;;;;9.18;2.72;;;;;;;5.02;100.00;95713.72;5054334;28;20500;-93
2022/11/24 03:13:34;;;;;;;9.25;2.10;;;;;;;5.03;100.00;95715.31;5054714;28;20044;-93
2022/11/24 03:16:01;;;;;;;10.05;2.45;;;;;;;5.00;100.00;95715.88;5059898;28;20041;-92
2022/11/24 03:18:29;;;;;;;7.88;2.20;;;;;;;5.09;100.00;95714.09;5073932;28;20090;-91
2022/11/24 03:20:59;;;;;;;9.82;1.90;;;;;;;4.97;100.00;95712.69;5074424;28;20082;-93
2022/11/24 03:23:26;;;;;;;3.00;1.60;;;;;;;5.00;100.00;95710.50;5073856;28;20045;-92
2022/11/24 03:25:53;;;;;;;5.43;1.50;;;;;;;4.94;100.00;95729.47;5074224;28;20044;-93
2022/11/24 03:28:20;;;;;;;5.75;1.67;;;;;;;4.89;100.00;95726.88;5054973;28;20051;-92
2022/11/24 03:30:48;;;;;;;4.68;1.48;;;;;;;4.85;100.00;95725.84;5074236;28;20044;-92
2022/11/24 03:33:14;;;;;;;6.10;1.88;;;;;;;4.87;100.00;95728.28;5073768;28;20047;-91
2022/11/24 03:35:42;;;;;;;3.42;1.25;;;;;;;4.90;100.00;95735.75;5074149;28;20044;-92
2022/11/24 03:38:09;;;;;;;9.45;1.50;;;;;;;4.92;100.00;95736.28;5072176;28;20480;-93
2022/11/24 03:40:35;;;;;;;4.45;1.20;;;;;;;4.92;100.00;95734.38;5054754;28;20045;-93
2022/11/24 03:43:02;;;;;;;4.60;1.38;;;;;;;4.88;100.00;95741.44;5053696;28;20435;-89
2022/11/24 03:45:28;;;;;;;6.10;1.48;;;;;;;4.91;100.00;95740.88;5054881;28;20045;-89
2022/11/24 03:47:55;;;;;;;5.93;1.27;;;;;;;4.82;100.00;95737.25;5063068;28;20048;-90
2022/11/24 03:50:22;;;;;;;5.97;1.20;;;;;;;4.81;100.00;95749.13;5052946;28;20200;-91
2022/11/24 03:52:50;;;;;;;5.07;1.25;;;;;;;4.87;100.00;95744.47;5053018;28;20048;-91
2022/11/24 03:55:17;;;;;;;5.47;1.10;;;;;;;4.91;100.00;95762.47;5067295;28;20041;-93
2022/11/24 03:57:43;;;;;;;4.88;1.25;;;;;;;4.98;100.00;95773.66;5073872;28;20044;-90
2022/11/24 04:00:11;;;;;;;7.50;1.67;;;;;;;5.03;100.00;95786.25;5068157;28;20678;-89
2022/11/24 04:02:38;;;;;;;5.45;1.38;;;;;;;4.98;100.00;95784.44;5073751;28;20052;-89
2022/11/24 04:05:05;;;;;;;2.30;1.05;;;;;;;4.87;100.00;95783.03;5073005;28;20045;-90
2022/11/24 04:07:32;;;;;;;5.35;1.10;;;;;;;4.85;100.00;95792.50;5073065;28;20050;-93
2022/11/24 04:10:00;;;;;;;5.53;1.40;;;;;;;4.85;100.00;95801.38;5065433;28;20060;-93
2022/11/24 04:12:44;;;;;;;5.20;1.30;;;;;;;4.81;100.00;95784.22;5052722;28;20043;-90
2022/11/24 04:15:11;;;;;;;4.07;1.30;;;;;;;4.80;100.00;95776.38;5052949;28;20156;-91
2022/11/24 04:17:37;;;;;;;5.82;1.38;;;;;;;4.79;100.00;95786.38;5063796;28;20048;-90
2022/11/24 04:20:05;;;;;;;6.20;1.20;;;;;;;4.76;100.00;95754.63;5051942;28;20041;-93
2022/11/24 04:22:32;;;;;;;6.20;1.50;;;;;;;4.75;100.00;95744.94;5052715;28;20056;-89
2022/11/24 04:24:59;;;;;;;4.93;1.30;;;;;;;4.80;100.00;95763.69;5053126;28;20052;-90
2022/11/24 04:27:26;;;;;;;2.85;1.40;;;;;;;4.77;100.00;95769.69;5052890;28;20040;-90
2022/11/24 04:29:53;;;;;;;3.53;1.30;;;;;;;4.79;100.00;95770.19;5061983;28;20048;-90
2022/11/24 04:32:19;;;;;;;6.88;1.63;;;;;;;4.78;100.00;95765.91;5060242;28;20052;-91
2022/11/24 04:34:46;;;;;;;5.35;1.30;;;;;;;4.76;100.00;95770.81;5053065;28;20098;-91
2022/11/24 04:37:13;;;;;;;7.05;1.42;;;;;;;4.80;100.00;95776.38;5052834;28;20515;-92
2022/11/24 04:39:39;;;;;;;6.22;1.48;;;;;;;4.82;100.00;95780.41;5053017;28;20041;-90
2022/11/24 04:42:07;;;;;;;3.35;1.30;;;;;;;4.90;100.00;95782.41;5052888;28;20132;-90
2022/11/24 04:44:34;;;;;;;4.72;1.30;;;;;;;4.93;100.00;95787.22;5052737;28;20049;-92
2022/11/24 04:47:00;;;;;;;4.75;1.17;;;;;;;4.95;100.00;95785.03;5066137;28;20487;-89
2022/11/24 04:49:27;;;;;;;6.38;1.70;;;;;;;5.00;100.00;95788.75;5066423;28;20048;-89
2022/11/24 04:51:54;;;;;;;4.18;1.20;;;;;;;5.02;100.00;95786.56;5054783;28;20045;-89
2022/11/24 04:54:20;;;;;;;3.35;1.05;;;;;;;5.09;100.00;95797.78;5072131;28;20492;-89
2022/11/24 04:56:50;;;;;;;3.17;1.10;;;;;;;5.09;100.00;95795.06;5072405;28;20041;-90
2022/11/24 04:59:18;;;;;;;4.18;1.20;;;;;;;5.09;100.00;95800.47;5067681;28;20041;-90
2022/11/24 05:01:46;;;;;;;6.03;1.17;;;;;;;5.13;100.00;95806.88;5052210;28;20043;-92
2022/11/24 05:04:15;;;;;;;4.20;1.52;;;;;;;5.14;100.00;95803.88;5051780;28;20037;-89
2022/11/24 05:06:42;;;;;;;4.20;1.00;;;;;;;5.19;100.00;95805.69;5047451;28;20515;-90
2022/11/24 05:09:11;;;;;;;4.10;1.10;;;;;;;5.26;100.00;95806.09;5071236;28;20419;-90
2022/11/24 05:11:37;;;;;;;3.00;0.95;;;;;;;5.28;100.00;95812.00;5072012;28;20681;-90
2022/11/24 05:14:03;;;;;;;2.90;0.98;;;;;;;5.27;100.00;95815.78;5071818;28;20068;-90
2022/11/24 05:16:31;;;;;;;4.78;1.27;;;;;;;5.34;100.00;95818.91;5061905;28;20044;-91
2022/11/24 05:18:58;;;;;;;4.15;1.10;;;;;;;5.33;100.00;95825.41;5071981;28;20415;-91
2022/11/24 05:21:24;;;;;;;3.88;1.15;;;;;;;5.32;100.00;95821.09;5071525;28;20049;-91
2022/11/24 05:23:51;;;;;;;4.82;1.40;;;;;;;5.35;100.00;95831.31;5072282;28;20411;-93
2022/11/24 05:26:17;;;;;;;1.67;0.85;;;;;;;5.39;100.00;95836.94;5071565;28;20518;-92
2022/11/24 05:28:44;;;;;;;6.00;1.45;;;;;;;5.42;100.00;95842.50;5072981;28;20041;-92
2022/11/24 05:31:11;;;;;;;3.75;1.10;;;;;;;5.41;100.00;95846.31;5071346;28;20044;-90
2022/11/24 05:33:39;;;;;;;4.43;1.08;;;;;;;5.40;100.00;95844.72;5072057;28;20127;-94
2022/11/24 05:36:07;;;;;;;4.43;1.20;;;;;;;5.40;100.00;95850.13;5071492;28;20064;-90
2022/11/24 05:38:34;;;;;;;8.63;1.20;;;;;;;5.41;100.00;95859.81;5071573;28;20036;-89
2022/11/24 05:41:01;;;;;;;2.78;1.00;;;;;;;5.37;100.00;95856.09;5054918;28;20416;-90
2022/11/24 05:43:28;;;;;;;5.63;1.02;;;;;;;5.42;100.00;95852.53;5062788;28;20495;-91
2022/11/24 05:45:54;;;;;;;3.75;1.23;;;;;;;5.41;100.00;95862.53;5071281;28;20044;-89
2022/11/24 05:48:21;;;;;;;6.32;1.40;;;;;;;5.42;100.00;95868.72;5061927;28;20056;-89
2022/11/24 05:50:54;;;;;;;5.30;1.05;;;;;;;5.47;100.00;95864.03;5067017;28;20050;-91
2022/11/24 05:53:21;;;;;;;2.65;1.00;;;;;;;5.50;100.00;95870.75;5067291;28;20456;-92
2022/11/24 05:55:47;;;;;;;3.75;1.23;;;;;;;5.49;100.00;95875.34;5050650;28;20052;-87
2022/11/24 05:58:14;;;;;;;5.57;1.10;;;;;;;5.52;100.00;95873.94;5063708;28;20046;-91
2022/11/24 06:00:41;;;;;;;6.65;1.13;;;;;;;5.48;100.00;95876.47;5064391;28;20044;-91
2022/11/24 06:03:08;;;;;;;7.60;1.35;;;;;;;5.54;100.00;95887.97;5059392;28;20432;-90
2022/11/24 06:05:35;;;;;;;3.75;1.30;;;;;;;5.50;100.00;95876.16;5052457;28;20045;-90
2022/11/24 06:08:03;;;;;;;6.55;1.30;;;;;;;5.53;100.00;95880.16;5048771;28;20051;-89
2022/11/24 06:10:29;;;;;;;7.18;1.25;;;;;;;5.61;100.00;95892.97;5048190;28;20041;-92
2022/11/24 06:12:56;;;;;;;5.72;1.20;;;;;;;5.64;99.85;95889.69;5055465;28;20044;-91
2022/11/24 06:15:23;;;;;;;6.60;2.10;;;;;;;5.67;99.41;95891.78;5049641;28;20044;-90
2022/11/24 06:17:54;;;;;;;4.35;1.35;;;;;;;5.59;99.50;95892.47;5050151;28;20067;-89
2022/11/24 06:20:21;;;;;;;3.00;1.23;;;;;;;5.55;99.52;95900.38;5067900;28;20052;-91
2022/11/24 06:22:48;;;;;;;5.72;1.40;;;;;;;5.61;99.55;95901.09;5061842;28;20045;-78
2022/11/24 06:25:16;;;;;;;5.47;1.45;;;;;;;5.58;99.20;95901.66;5065154;28;20516;-79
2022/11/24 06:27:43;;;;;;;9.13;1.65;;;;;;;5.62;99.29;95899.97;5064896;28;20068;-80
2022/11/24 06:30:11;;;;;;;7.65;1.80;;;;;;;5.58;99.19;95899.75;5063588;28;20088;-75
2022/11/24 06:32:38;;;;;;;7.57;1.70;;;;;;;5.63;99.09;95904.28;5049511;28;20515;-81
2022/11/24 06:35:06;;;;;;;8.38;1.92;;;;;;;5.59;99.26;95911.41;5050704;28;20051;-77
2022/11/24 06:37:35;;;;;;;7.72;1.83;;;;;;;5.65;98.98;95915.59;5067348;28;20454;-80
2022/11/24 06:40:02;;;;;;;11.68;1.73;;;;;;;5.62;98.79;95913.47;5068764;28;20622;-80
2022/11/24 06:42:30;;;;;;;7.65;1.92;;;;;;;5.69;97.80;95927.41;5069808;28;20564;-76
2022/11/24 06:44:56;;;;;;;8.10;1.67;;;;;;;5.78;97.24;95925.63;5069812;28;20045;-76
2022/11/24 06:47:23;;;;;;;6.82;1.63;;;;;;;5.73;96.97;95925.72;5054903;28;20427;-80
2022/11/24 06:49:49;;;;;;;12.70;1.70;;;;;;;5.75;97.16;95920.81;5049779;28;20065;-76
2022/11/24 06:52:16;;;;;;;6.93;1.40;;;;;;;5.82;96.45;95925.84;5049192;28;20499;-78
2022/11/24 06:54:42;;;;;;;8.60;1.75;;;;;;;5.80;96.00;95928.84;5049435;28;20052;-82
2022/11/24 06:57:09;;;;;;;8.82;1.80;;;;;;;5.83;96.64;95933.63;5049345;28;20143;-75
2022/11/24 06:59:37;;;;;;;5.97;1.55;;;;;;;5.84;95.74;95921.72;5049822;28;20051;-75
2022/11/24 07:02:03;;;;;;;9.18;2.40;;;;;;;5.85;95.49;95920.66;5049410;28;20047;-78
2022/11/24 07:04:30;;;;;;;10.07;1.88;;;;;;;5.87;95.51;95923.84;5049527;28;20044;-77
2022/11/24 07:06:57;;;;;;;12.75;2.13;;;;;;;5.90;94.42;95920.56;5049834;28;20041;-76
2022/11/24 07:09:23;;;;;;;6.88;1.88;;;;;;;5.89;94.65;95921.63;5048999;28;20041;-76
2022/11/24 07:11:50;;;;;;;11.02;1.80;;;;;;;5.87;94.69;95923.84;5049757;28;20491;-76
2022/11/24 07:14:17;;;;;;;5.72;1.45;;;;;;;5.89;94.29;95921.63;5052739;28;20045;-75
2022/11/24 07:16:45;;;;;;;7.95;1.65;;;;;;;5.92;94.28;95926.47;5053743;28;20041;-77
2022/11/24 07:19:12;;;;;;;8.18;1.77;;;;;;;5.90;94.06;95922.44;5052638;28;20045;-78
2022/11/24 07:21:38;;;;;;;5.40;1.60;;;;;;;5.94;93.22;95928.88;5053473;28;20496;-75
2022/11/24 07:24:06;;;;;;;8.18;1.65;;;;;;;5.96;92.70;95932.09;5052574;28;20045;-81
2022/11/24 07:26:36;;;;;;;12.20;2.05;;;;;;;5.99;92.73;95926.09;5053300;28;20047;-81
2022/11/24 07:29:02;;;;;;;9.95;1.67;;;;;;;6.04;92.02;95936.00;5052612;28;20128;-82
2022/11/24 07:31:29;;;;;;;12.63;1.90;;;;;;;6.05;92.49;95943.00;5052890;28;20060;-81
2022/11/24 07:33:57;;;;;;;9.75;1.50;;;;;;;6.06;92.52;95942.72;5053045;28;20059;-78
2022/11/24 07:36:24;;;;;;;5.63;1.38;;;;;;;6.08;91.89;95940.50;5052505;28;20041;-80
2022/11/24 07:38:51;;;;;;;10.75;2.03;;;;;;;6.16;91.26;95941.69;5052961;28;20037;-75
2022/11/24 07:41:19;;;;;;;10.27;1.40;;;;;;;6.26;90.78;95946.91;5052410;28;20415;-79
2022/11/24 07:43:47;;;;;;;12.43;2.33;;;;;;;6.31;90.64;95941.41;5053034;28;20074;-78
2022/11/24 07:46:16;;;;;;;9.32;2.03;;;;;;;6.30;89.65;95937.13;5060019;28;20051;-81
2022/11/24 07:48:43;;;;;;;11.43;1.48;;;;;;;6.35;89.55;95928.09;5092973;28;20051;-80
2022/11/24 07:51:11;;;;;;;13.05;2.10;;;;;;;6.26;89.79;95933.41;5092483;28;20138;-79
2022/11/24 07:53:38;;;;;;;10.13;1.85;;;;;;;6.32;89.41;95932.22;5092852;28;20410;-76
2022/11/24 07:56:06;;;;;;;8.77;1.50;;;;;;;6.73;86.90;95934.91;5092404;28;20398;-76
2022/11/24 07:58:34;;;;;;;11.77;1.80;;;;;;;7.32;84.75;95934.91;5092701;28;20040;-77
2022/11/24 08:01:09;;;;;;;11.55;2.10;;;;;;;7.55;81.81;95939.22;5092369;28;20040;-76
2022/11/24 08:03:35;;;;;;;12.30;1.92;;;;;;;7.59;81.22;95944.84;5092797;28;20043;-76
2022/11/24 08:06:02;;;;;;;15.30;2.60;;;;;;;7.76;79.55;95934.09;5092141;28;20093;-78
2022/11/24 08:08:32;;;;;;;8.75;1.35;;;;;;;7.79;78.92;95925.34;5059194;28;20072;-77
2022/11/24 08:10:58;;;;;;;12.10;2.08;;;;;;;7.78;78.96;95925.69;5053530;28;20033;-76
2022/11/24 08:13:25;;;;;;;7.75;1.60;;;;;;;7.36;79.90;95927.78;5067247;28;20040;-79
2022/11/24 08:15:51;;;;;;;11.73;2.22;;;;;;;7.19;81.31;95938.47;5066520;28;20701;-79
2022/11/24 08:18:18;;;;;;;8.20;1.67;;;;;;;7.27;81.70;95927.72;5067472;28;20048;-80
2022/11/24 08:20:44;;;;;;;8.63;1.90;;;;;;;7.41;80.75;95932.25;5060659;28;20041;-78
2022/11/24 08:23:11;;;;;;;10.30;1.60;;;;;;;7.36;80.31;95933.22;5071343;28;20040;-77
2022/11/24 08:25:39;;;;;;;8.73;2.00;;;;;;;7.37;81.73;95932.09;5070979;28;20079;-75
2022/11/24 08:28:05;;;;;;;8.95;1.60;;;;;;;7.31;81.45;95927.91;5071101;28;20039;-75
2022/11/24 08:30:32;;;;;;;7.28;1.75;;;;;;;7.24;81.66;95930.22;5071624;28;20048;-77
2022/11/24 08:32:59;;;;;;;10.27;2.00;;;;;;;7.18;82.76;95936.88;5071967;28;20040;-75
2022/11/24 08:35:27;;;;;;;8.43;1.40;;;;;;;7.26;82.25;95928.03;5071148;28;20032;-77
2022/11/24 08:37:53;;;;;;;8.02;1.55;;;;;;;7.26;82.06;95942.38;5071677;28;20044;-75
2022/11/24 08:40:20;;;;;;;7.53;1.65;;;;;;;7.45;81.87;95939.47;5071323;28;20071;-88
2022/11/24 08:42:48;;;;;;;5.60;1.42;;;;;;;7.41;81.32;95943.88;5071930;28;20044;-90
2022/11/24 08:45:15;;;;;;;10.05;1.60;;;;;;;7.43;81.35;95947.09;5071295;28;20045;-90
2022/11/24 08:47:41;;;;;;;7.85;1.60;;;;;;;7.36;80.79;95940.50;5055305;28;20048;-87
2022/11/24 08:50:09;;;;;;;13.73;1.90;;;;;;;7.49;80.12;95951.28;5051446;28;20060;-88
2022/11/24 08:52:36;;;;;;;8.30;1.55;;;;;;;7.41;79.98;95960.16;5051660;28;20068;-88
2022/11/24 08:55:03;;;;;;;9.05;1.70;;;;;;;7.27;81.20;95956.72;5055845;28;20044;-89
2022/11/24 08:57:29;;;;;;;10.13;1.45;;;;;;;7.20;81.27;95956.31;5060634;28;20045;-89
2022/11/24 08:59:57;;;;;;;12.93;2.58;;;;;;;7.19;80.27;95952.81;5059373;28;20044;-89
2022/11/24 09:02:24;;;;;;;7.78;1.45;;;;;;;7.17;80.93;95955.03;5063071;28;20049;-88
2022/11/24 09:04:51;;;;;;;17.52;2.38;;;;;;;7.11;80.05;95950.03;5055501;28;20051;-88
2022/11/24 09:07:17;;;;;;;10.57;1.63;;;;;;;7.16;79.84;95952.63;5050944;28;20392;-87
2022/11/24 09:09:44;;;;;;;8.82;1.88;;;;;;;7.12;80.26;95951.63;5051304;28;20419;-90
2022/11/24 09:12:10;;;;;;;5.78;1.67;;;;;;;7.18;80.80;95945.00;5050693;28;20086;-87
2022/11/24 09:14:37;;;;;;;9.63;1.73;;;;;;;7.20;80.05;95945.47;5052746;28;20049;-88
2022/11/24 09:17:05;;;;;;;8.18;1.40;;;;;;;7.31;80.45;95942.25;5058663;28;20052;-87
2022/11/24 09:19:31;;;;;;;7.18;1.48;;;;;;;7.53;79.18;95949.56;5068677;28;20044;-88
2022/11/24 09:21:58;;;;;;;8.15;1.58;;;;;;;7.86;78.87;95952.00;5051375;28;20049;-88
2022/11/24 09:24:25;;;;;;;9.60;1.83;;;;;;;8.01;77.05;95962.47;5050325;28;20098;-88
2022/11/24 09:26:54;;;;;;;11.82;1.60;;;;;;;8.21;76.54;95955.72;5051035;28;20128;-88
2022/11/24 09:29:20;;;;;;;7.80;1.70;;;;;;;8.18;75.57;95961.75;5068401;28;20124;-87
2022/11/24 09:31:47;;;;;;;8.80;1.67;;;;;;;7.96;75.09;95965.31;5068451;28;20142;-87
2022/11/24 09:34:16;;;;;;;12.65;1.60;;;;;;;8.17;75.64;95956.66;5056211;28;20040;-87
2022/11/24 09:36:43;;;;;;;10.15;1.88;;;;;;;8.15;73.90;95964.31;5069153;28;20466;-88
2022/11/24 09:39:10;;;;;;;17.85;2.03;;;;;;;8.29;75.12;95963.06;5065519;28;20051;-87
2022/11/24 09:41:57;;;;;;;9.00;1.45;;;;;;;8.44;73.32;95963.81;5070719;28;20048;-87
2022/11/24 09:44:45;;;;;;;11.68;1.40;;;;;;;8.32;73.57;95961.66;5059190;28;20491;-86
2022/11/24 09:47:21;;;;;;;8.18;1.60;;;;;;;8.03;73.01;95965.66;5059677;28;20047;-86
2022/11/24 09:49:56;;;;;;;6.93;1.48;;;;;;;7.89;74.57;95966.88;5050553;28;20503;-86
2022/11/24 09:52:40;;;;;;;7.50;1.20;;;;;;;8.10;75.44;95966.03;5049948;28;20063;-88
2022/11/24 09:55:25;;;;;;;7.93;1.67;;;;;;;8.09;73.92;95958.19;5050134;28;20052;-88
2022/11/24 09:58:01;;;;;;;11.10;1.35;;;;;;;8.25;74.77;95958.59;5059784;28;20039;-89
2022/11/24 10:00:28;;;;;;;12.30;1.38;;;;;;;8.41;73.24;95970.69;5068012;28;20067;-87
2022/11/24 10:02:55;;;;;;;9.48;1.58;;;;;;;8.43;74.45;95968.44;5062294;28;20037;-87
2022/11/24 10:05:28;;;;;;;8.77;1.40;;;;;;;8.51;73.56;95964.97;5049767;28;20476;-87
2022/11/24 10:08:06;;;;;;;3.85;1.27;;;;;;;8.95;70.65;95971.31;5058722;28;20037;-88
2022/11/24 10:10:40;;;;;;;15.00;1.83;;;;;;;9.10;70.36;95960.00;5054197;28;20052;-88
2022/11/24 10:13:26;;;;;;;7.57;2.22;;;;;;;9.29;69.62;95972.47;5049944;28;20458;-87
2022/11/24 10:15:58;;;;;;;11.27;2.22;;;;;;;8.74;70.05;95978.44;5051571;28;20055;-88
2022/11/24 10:18:48;;;;;;;8.48;1.70;;;;;;;8.71;72.29;95977.16;5062798;28;20385;-87
2022/11/24 10:21:44;;;;;;;8.05;1.60;;;;;;;8.60;72.97;95982.06;5049490;28;20063;-87
2022/11/24 10:24:31;;;;;;;9.35;1.50;;;;;;;8.62;71.07;95976.34;5049763;28;20044;-87
2022/11/24 10:27:01;;;;;;;6.90;1.38;;;;;;;8.75;71.37;95980.03;5050485;28;20044;-86
2022/11/24 10:29:34;;;;;;;6.93;1.45;;;;;;;8.71;71.72;95974.44;5049980;28;20037;-87
2022/11/24 10:32:05;;;;;;;10.18;1.52;;;;;;;8.79;71.87;95976.38;5049993;28;20045;-89
2022/11/24 10:34:35;;;;;;;11.68;1.58;;;;;;;8.90;70.57;95982.31;5049997;28;20041;-88
2022/11/24 10:37:12;;;;;;;7.65;0.77;;;;;;;8.78;70.46;95979.41;5050948;28;20052;-89
2022/11/24 10:39:46;;;;;;;7.00;1.23;;;;;;;8.74;71.02;95970.31;5065524;28;20484;-87
2022/11/24 10:42:19;;;;;;;5.20;1.10;;;;;;;8.59;72.26;95979.66;5059199;28;20043;-88
2022/11/24 10:44:46;;;;;;;6.40;1.60;;;;;;;8.42;72.61;95983.13;5065603;28;20045;-87
2022/11/24 10:47:18;;;;;;;7.00;1.35;;;;;;;8.21;73.57;95987.47;5076415;28;20509;-90
2022/11/24 10:49:51;;;;;;;3.78;0.93;;;;;;;7.99;74.26;95994.53;5053653;28;20048;-87
2022/11/24 10:52:20;;;;;;;4.70;0.80;;;;;;;7.73;77.70;95993.56;5053720;28;20472;-87
2022/11/24 10:54:55;;;;;;;5.25;0.73;;;;;;;7.38;80.95;96004.13;5053890;28;20041;-88
2022/11/24 10:57:28;;;;;;;2.33;0.77;;;;;;;7.09;83.03;96003.69;5053269;28;20057;-87
2022/11/24 10:59:55;;;;;;;2.72;0.75;;;;;;;6.79;84.61;96020.28;5053911;28;20056;-87
2022/11/24 11:02:36;;;;;;;2.58;0.50;;;;;;;6.38;83.00;96020.25;5073066;28;20114;-86
2022/11/24 11:05:40;;;;;;;3.05;0.50;;;;;;;6.08;88.15;96047.84;5064092;28;20449;-87
2022/11/24 11:08:27;;;;;;;4.13;0.77;;;;;;;5.78;91.93;96033.69;5013273;28;20049;-85
2022/11/24 11:11:18;;;;;;;4.13;0.73;;;;;;;5.62;94.10;96041.22;5060609;28;20044;-88
2022/11/24 11:13:52;;;;;;;3.38;0.90;;;;;;;5.48;96.77;96038.50;5072806;28;20047;-90
2022/11/24 11:16:25;;;;;;;1.75;0.70;;;;;;;5.31;98.87;96035.47;5075620;28;20051;-87
2022/11/24 11:18:52;;;;;;;3.10;0.70;;;;;;;5.21;100.00;96041.03;5072245;28;20590;-87
2022/11/24 11:21:29;;;;;;;1.70;0.52;;;;;;;5.15;100.00;96029.50;5061554;28;20045;-90
2022/11/24 11:23:58;;;;;;;3.30;0.50;;;;;;;5.14;100.00;96035.19;5052142;28;20511;-90
2022/11/24 11:26:37;;;;;;;6.68;0.93;;;;;;;5.13;100.00;96031.69;5053548;28;20040;-88
2022/11/24 11:29:15;;;;;;;3.22;0.70;;;;;;;5.11;100.00;96041.16;5052316;28;20241;-91
2022/11/24 11:31:41;;;;;;;3.80;0.85;;;;;;;5.12;100.00;96034.69;5052934;28;20045;-89
2022/11/24 11:34:18;;;;;;;2.78;1.00;;;;;;;5.15;100.00;96042.19;5052695;28;20052;-90
2022/11/24 11:36:46;;;;;;;3.03;0.82;;;;;;;5.14;100.00;96032.50;5053974;28;20053;-89
2022/11/24 11:39:24;;;;;;;4.68;0.77;;;;;;;5.20;100.00;96036.72;5071066;28;20056;-89
2022/11/24 11:41:55;;;;;;;6.57;1.10;;;;;;;5.27;100.00;96037.16;5072599;28;20051;-88
2022/11/24 11:44:34;;;;;;;1.92;0.60;;;;;;;5.35;100.00;96036.50;5072238;28;20591;-88